Time;durP1;ratioP1;P1;durP2;ratioP2;P2;SDS_P1;SDS_P2;PMS_P1;PMS_P2;Temp;Humidity;BMP_temperature;BMP_pressure;BME280_temperature;BME280_humidity;BME280_pressure;Samples;Min_cycle;Max_cycle;Signal;HPM_P1;HPM_P2
2023/09/02 00:02:20;;;;;;;19.08;15.55;;;435.50;2355.20;;;;;;5028852;28;20030;-64
2023/09/02 00:04:46;;;;;;;17.73;14.38;;;435.40;2355.20;;;;;;5029295;28;20028;-62
2023/09/02 00:07:12;;;;;;;16.88;15.13;;;435.30;2355.20;;;;;;5028982;28;20041;-64
2023/09/02 00:09:37;;;;;;;15.75;14.10;;;435.30;2355.20;;;;;;5029243;28;20022;-63
2023/09/02 00:12:04;;;;;;;14.57;13.18;;;435.30;2355.20;;;;;;5028370;28;20025;-63
2023/09/02 00:14:29;;;;;;;14.60;13.10;;;435.30;2355.20;;;;;;5029128;28;20033;-64
2023/09/02 00:16:55;;;;;;;14.68;13.27;;;435.30;2355.20;;;;;;5028773;28;20080;-64
2023/09/02 00:19:21;;;;;;;15.32;13.30;;;435.40;2355.20;;;;;;5024423;28;20037;-64
2023/09/02 00:21:47;;;;;;;13.48;12.07;;;435.30;2355.20;;;;;;5028416;28;20028;-63
2023/09/02 00:24:12;;;;;;;12.30;11.10;;;435.30;2355.20;;;;;;5010114;28;20065;-64
2023/09/02 00:26:38;;;;;;;14.13;12.18;;;435.30;2355.20;;;;;;5023059;28;20108;-64
2023/09/02 00:29:04;;;;;;;13.68;12.23;;;435.30;2355.20;;;;;;5028763;28;20502;-64
2023/09/02 00:31:30;;;;;;;12.82;11.63;;;435.30;2355.20;;;;;;5028377;28;20029;-63
2023/09/02 00:33:55;;;;;;;16.25;13.05;;;435.30;2355.20;;;;;;5019317;28;20025;-64
2023/09/02 00:36:21;;;;;;;14.90;13.50;;;435.20;2355.20;;;;;;5028582;28;20431;-63
2023/09/02 00:38:48;;;;;;;16.33;14.57;;;410.50;2355.20;;;;;;5028807;28;20025;-64
2023/09/02 00:41:25;;;;;;;17.20;15.60;;;410.50;2355.20;;;;;;5028707;28;20037;-64
2023/09/02 00:43:52;;;;;;;14.80;13.20;;;410.50;2355.20;;;;;;5028203;28;20087;-64
2023/09/02 00:46:18;;;;;;;17.98;15.68;;;410.50;2355.20;;;;;;5028408;28;20117;-63
2023/09/02 00:48:44;;;;;;;16.15;14.43;;;410.50;2355.20;;;;;;5028400;28;20136;-63
2023/09/02 00:51:09;;;;;;;15.48;13.90;;;410.50;2355.20;;;;;;5028964;28;20025;-63
2023/09/02 00:53:35;;;;;;;14.43;12.00;;;410.50;2355.20;;;;;;5028947;28;20032;-63
2023/09/02 00:56:01;;;;;;;13.20;11.95;;;410.50;2355.20;;;;;;5028631;28;20026;-64
2023/09/02 00:58:27;;;;;;;13.20;11.90;;;410.50;2355.20;;;;;;5028628;28;20068;-63
2023/09/02 01:00:53;;;;;;;15.38;12.30;;;410.40;2355.20;;;;;;5032406;28;20060;-64
2023/09/02 01:03:19;;;;;;;12.75;10.88;;;410.50;2355.20;;;;;;5023196;28;20037;-64
2023/09/02 01:05:45;;;;;;;13.48;10.63;;;410.40;2355.20;;;;;;5028637;28;20033;-64
2023/09/02 01:08:12;;;;;;;9.93;9.00;;;410.40;2355.20;;;;;;5032401;28;20082;-66
2023/09/02 01:10:38;;;;;;;13.13;9.95;;;410.40;2355.20;;;;;;5032376;28;20034;-64
2023/09/02 01:13:04;;;;;;;9.30;8.43;;;410.40;2355.20;;;;;;5031998;28;20033;-64
2023/09/02 01:15:31;;;;;;;10.63;8.75;;;410.30;2355.20;;;;;;5032078;28;20034;-65
2023/09/02 01:17:57;;;;;;;12.75;9.35;;;410.30;2355.20;;;;;;5032245;28;20041;-65
2023/09/02 01:20:27;;;;;;;9.73;8.73;;;410.20;2355.20;;;;;;5032248;28;20040;-64
2023/09/02 01:23:23;;;;;;;15.80;11.98;;;410.20;2355.20;;;;;;5027948;28;20083;-65
2023/09/02 01:26:08;;;;;;;12.63;9.00;;;410.00;2355.20;;;;;;5026773;28;20594;-63
2023/09/02 01:28:40;;;;;;;11.43;8.95;;;410.00;2355.20;;;;;;5026282;28;20076;-64
2023/09/02 01:31:10;;;;;;;10.68;9.13;;;410.00;2355.20;;;;;;5030045;28;20038;-64
2023/09/02 01:33:36;;;;;;;9.50;8.50;;;410.00;2355.20;;;;;;5029593;28;20037;-64
2023/09/02 01:36:03;;;;;;;11.32;9.73;;;410.00;2355.20;;;;;;5029638;28;20087;-64
2023/09/02 01:38:32;;;;;;;10.82;9.73;;;410.00;2355.20;;;;;;5029046;28;20028;-64
2023/09/02 01:41:00;;;;;;;12.27;11.05;;;410.10;2355.20;;;;;;5029237;28;20116;-65
2023/09/02 01:43:29;;;;;;;15.98;9.57;;;410.10;2355.20;;;;;;5029291;28;20415;-65
2023/09/02 01:45:56;;;;;;;11.48;10.10;;;410.10;2355.20;;;;;;5029051;28;20107;-64
2023/09/02 01:48:23;;;;;;;10.93;9.80;;;410.00;2355.20;;;;;;5028987;28;20084;-64
2023/09/02 01:50:52;;;;;;;10.93;9.85;;;409.80;2355.20;;;;;;5029471;28;20024;-64
2023/09/02 01:53:18;;;;;;;13.27;10.70;;;409.80;2355.20;;;;;;5029586;28;20048;-65
2023/09/02 01:55:45;;;;;;;13.63;10.38;;;409.80;2355.20;;;;;;5029041;28;20025;-65
2023/09/02 01:58:11;;;;;;;15.98;10.93;;;409.70;2355.20;;;;;;5029027;28;20037;-66
2023/09/02 02:00:39;;;;;;;12.55;11.25;;;409.80;2355.20;;;;;;5029130;28;20112;-64
2023/09/02 02:03:11;;;;;;;12.18;10.88;;;409.70;2355.20;;;;;;5029127;28;20409;-64
2023/09/02 02:05:45;;;;;;;12.40;10.45;;;409.70;2355.20;;;;;;5021674;28;20109;-63
2023/09/02 02:08:19;;;;;;;19.52;11.95;;;409.80;2355.20;;;;;;5031580;28;20282;-63
2023/09/02 02:10:46;;;;;;;12.52;11.23;;;409.80;2355.20;;;;;;5030719;28;20025;-63
2023/09/02 02:13:12;;;;;;;13.38;11.68;;;409.90;2355.20;;;;;;5031257;28;20071;-63
2023/09/02 02:15:38;;;;;;;12.55;11.27;;;409.90;2355.20;;;;;;5031317;28;20100;-64
2023/09/02 02:18:04;;;;;;;13.35;12.05;;;409.90;2355.20;;;;;;5031156;28;20109;-63
2023/09/02 02:20:54;;;;;;;11.75;10.65;;;409.90;2355.20;;;;;;5027077;28;20033;-63
2023/09/02 02:23:20;;;;;;;15.48;10.25;;;409.90;2355.20;;;;;;5024277;28;20399;-63
2023/09/02 02:25:45;;;;;;;13.27;11.02;;;409.90;2355.20;;;;;;5031302;28;20100;-64
2023/09/02 02:28:11;;;;;;;14.23;12.20;;;409.90;2355.20;;;;;;5028687;28;20029;-63
2023/09/02 02:30:37;;;;;;;12.40;10.95;;;409.90;2355.20;;;;;;5026647;28;20026;-64
2023/09/02 02:33:02;;;;;;;11.73;9.98;;;409.90;2355.20;;;;;;5025219;28;20026;-63
2023/09/02 02:35:32;;;;;;;10.60;9.52;;;409.90;2355.20;;;;;;5030814;28;20104;-63
2023/09/02 02:37:59;;;;;;;10.10;9.00;;;409.90;2355.20;;;;;;5030571;28;20113;-63
2023/09/02 02:40:27;;;;;;;11.48;10.27;;;409.90;2355.20;;;;;;5026192;28;20487;-64
2023/09/02 02:42:53;;;;;;;11.57;9.18;;;409.90;2355.20;;;;;;5030196;28;20036;-63
2023/09/02 02:45:19;;;;;;;9.77;8.65;;;409.80;2355.20;;;;;;5030783;28;20049;-64
2023/09/02 02:47:45;;;;;;;10.40;9.40;;;409.70;2355.20;;;;;;5028020;28;20042;-63
2023/09/02 02:50:11;;;;;;;10.30;8.82;;;409.60;2355.20;;;;;;5030708;28;20492;-66
2023/09/02 02:52:37;;;;;;;9.77;8.77;;;384.80;2329.60;;;;;;5029251;28;20034;-63
2023/09/02 02:55:03;;;;;;;11.02;9.48;;;384.80;2329.60;;;;;;5018892;28;20028;-64
2023/09/02 02:57:29;;;;;;;10.52;9.43;;;384.90;2329.60;;;;;;5030231;28;20033;-64
2023/09/02 02:59:55;;;;;;;10.00;8.02;;;384.90;2329.60;;;;;;5030599;28;20033;-63
2023/09/02 03:02:20;;;;;;;10.50;9.50;;;409.60;2355.20;;;;;;5030253;28;20907;-64
2023/09/02 03:04:48;;;;;;;9.88;8.85;;;384.90;2329.60;;;;;;5030074;28;20029;-64
2023/09/02 03:07:14;;;;;;;10.02;9.00;;;384.90;2329.60;;;;;;5029881;28;20083;-63
2023/09/02 03:09:40;;;;;;;11.65;10.00;;;384.80;2329.60;;;;;;5030174;28;20017;-65
2023/09/02 03:12:06;;;;;;;11.85;10.57;;;384.80;2329.60;;;;;;5029805;28;20051;-63
2023/09/02 03:14:32;;;;;;;13.55;10.02;;;384.90;2329.60;;;;;;5029737;28;20030;-63
2023/09/02 03:16:59;;;;;;;12.38;10.65;;;384.80;2329.60;;;;;;5029823;28;20108;-62
2023/09/02 03:19:25;;;;;;;10.40;9.40;;;384.90;2329.60;;;;;;5029744;28;20025;-63
2023/09/02 03:21:51;;;;;;;12.45;10.70;;;384.90;2329.60;;;;;;5029004;28;20521;-64
2023/09/02 03:24:17;;;;;;;10.77;9.68;;;384.90;2329.60;;;;;;5029823;28;20067;-63
2023/09/02 03:26:43;;;;;;;11.23;10.13;;;384.90;2329.60;;;;;;5029348;28;20068;-63
2023/09/02 03:29:08;;;;;;;11.38;9.38;;;384.90;2329.60;;;;;;5030116;28;20175;-64
2023/09/02 03:31:34;;;;;;;10.57;9.52;;;384.80;2329.60;;;;;;5029476;28;20036;-63
2023/09/02 03:34:00;;;;;;;11.15;9.98;;;384.80;2329.60;;;;;;5025148;28;20022;-63
2023/09/02 03:36:25;;;;;;;10.90;9.80;;;384.80;2329.60;;;;;;5024027;28;20079;-64
2023/09/02 03:38:51;;;;;;;10.48;9.23;;;384.80;2329.60;;;;;;5029137;28;20164;-64
2023/09/02 03:41:17;;;;;;;11.95;9.48;;;384.80;2329.60;;;;;;5028005;28;20060;-63
2023/09/02 03:43:45;;;;;;;10.77;9.13;;;384.70;2329.60;;;;;;5029135;28;20061;-63
2023/09/02 03:46:10;;;;;;;12.35;10.30;;;384.60;2329.60;;;;;;5029228;28;20052;-63
2023/09/02 03:48:36;;;;;;;19.15;9.60;;;384.70;2329.60;;;;;;5029824;28;20029;-63
2023/09/02 03:51:12;;;;;;;10.27;9.20;;;384.60;2329.60;;;;;;5028847;28;20467;-63
2023/09/02 03:53:41;;;;;;;10.98;9.90;;;384.60;2329.60;;;;;;5029487;28;20434;-63
2023/09/02 03:56:07;;;;;;;11.00;9.88;;;384.70;2329.60;;;;;;5025692;28;20508;-63
2023/09/02 03:58:33;;;;;;;11.80;9.90;;;384.70;2329.60;;;;;;5028949;28;20140;-64
2023/09/02 04:00:58;;;;;;;12.25;10.45;;;384.70;2329.60;;;;;;5029032;28;20117;-64
2023/09/02 04:03:25;;;;;;;10.52;9.43;;;384.70;2329.60;;;;;;5029069;28;20409;-63
2023/09/02 04:05:52;;;;;;;11.10;9.85;;;384.70;2329.60;;;;;;5029653;28;20592;-64
2023/09/02 04:08:26;;;;;;;11.20;9.43;;;384.60;2329.60;;;;;;5029026;28;20376;-63
2023/09/02 04:10:54;;;;;;;11.63;10.43;;;384.60;2329.60;;;;;;5028543;28;20017;-64
2023/09/02 04:13:24;;;;;;;11.32;10.13;;;384.70;2329.60;;;;;;5029224;28;20033;-64
2023/09/02 04:15:53;;;;;;;13.80;10.07;;;384.60;2329.60;;;;;;5023480;28;20025;-63
2023/09/02 04:18:19;;;;;;;12.23;9.88;;;384.70;2329.60;;;;;;5028902;28;20029;-63
2023/09/02 04:20:45;;;;;;;14.23;11.18;;;384.60;2329.60;;;;;;5028503;28;20071;-63
2023/09/02 04:23:11;;;;;;;16.88;11.48;;;384.70;2329.60;;;;;;5028945;28;20030;-64
2023/09/02 04:25:54;;;;;;;11.00;9.80;;;384.70;2329.60;;;;;;5029139;28;20018;-64
2023/09/02 04:28:20;;;;;;;12.10;10.18;;;384.90;2329.60;;;;;;5028870;28;20043;-63
2023/09/02 04:30:46;;;;;;;10.70;9.60;;;384.90;2329.60;;;;;;5028764;28;20113;-64
2023/09/02 04:33:14;;;;;;;11.32;10.13;;;384.90;2329.60;;;;;;5028601;28;20434;-63
2023/09/02 04:35:41;;;;;;;16.38;10.88;;;409.60;2355.20;;;;;;5028498;28;20104;-63
2023/09/02 04:38:07;;;;;;;12.73;9.70;;;409.60;2355.20;;;;;;5029030;28;20061;-63
2023/09/02 04:40:44;;;;;;;16.75;10.02;;;409.60;2355.20;;;;;;5028543;28;20021;-62
2023/09/02 04:43:11;;;;;;;16.05;10.98;;;409.70;2355.20;;;;;;5028428;28;20026;-63
2023/09/02 04:45:41;;;;;;;11.90;9.95;;;409.80;2355.20;;;;;;5028894;28;20053;-63
2023/09/02 04:48:08;;;;;;;11.15;9.40;;;409.90;2355.20;;;;;;5028628;28;20033;-64
2023/09/02 04:50:35;;;;;;;9.93;8.93;;;409.90;2355.20;;;;;;5028891;28;20064;-63
2023/09/02 04:53:01;;;;;;;11.25;9.07;;;409.90;2355.20;;;;;;5028619;28;20430;-62
2023/09/02 04:55:28;;;;;;;10.55;9.45;;;410.00;2355.20;;;;;;5028779;28;20026;-63
2023/09/02 04:57:55;;;;;;;15.05;9.00;;;410.10;2355.20;;;;;;5028262;28;20104;-62
2023/09/02 05:00:28;;;;;;;20.17;9.23;;;410.20;2355.20;;;;;;5029220;28;20029;-62
2023/09/02 05:02:54;;;;;;;14.80;9.75;;;410.30;2355.20;;;;;;5028511;28;20049;-62
2023/09/02 05:05:22;;;;;;;10.13;7.72;;;410.50;2355.20;;;;;;5029024;28;20026;-63
2023/09/02 05:07:49;;;;;;;9.90;8.48;;;435.60;2355.20;;;;;;5028457;28;20626;-62
2023/09/02 05:10:15;;;;;;;11.25;7.60;;;460.80;2380.80;;;;;;5027685;28;20419;-63
2023/09/02 05:12:42;;;;;;;12.05;8.55;;;461.60;2380.80;;;;;;5027868;28;20044;-64
2023/09/02 05:15:08;;;;;;;9.07;8.13;;;486.80;2380.80;;;;;;5029157;28;20102;-62
2023/09/02 05:17:35;;;;;;;9.50;8.40;;;512.50;2380.80;;;;;;5028601;28;20301;-64
2023/09/02 05:20:03;;;;;;;10.25;8.38;;;537.70;2406.40;;;;;;5028540;28;20467;-64
2023/09/02 05:22:29;;;;;;;10.90;8.52;;;563.70;2432.00;;;;;;5015542;28;20034;-65
2023/09/02 05:24:55;;;;;;;9.32;7.65;;;563.80;2432.00;;;;;;5028016;28;20032;-65
2023/09/02 05:27:21;;;;;;;9.35;7.57;;;564.10;2432.00;;;;;;5028261;28;20033;-64
2023/09/02 05:29:47;;;;;;;19.40;9.40;;;563.40;2432.00;;;;;;5028243;28;20117;-63
2023/09/02 05:32:13;;;;;;;12.00;7.53;;;640.60;2432.00;;;;;;5027279;28;20108;-63
2023/09/02 05:34:40;;;;;;;8.90;7.93;;;666.20;2278.40;;;;;;5028227;28;20420;-65
2023/09/02 05:37:05;;;;;;;10.45;8.10;;;665.80;2252.80;;;;;;5028538;28;20344;-63
2023/09/02 05:39:31;;;;;;;7.97;7.18;;;691.50;2150.40;;;;;;5028319;28;20084;-67
2023/09/02 05:41:57;;;;;;;9.07;7.07;;;691.30;2124.80;;;;;;5027602;28;20468;-62
2023/09/02 05:44:23;;;;;;;7.95;7.13;;;691.60;2099.20;;;;;;5027734;28;20058;-59
2023/09/02 05:46:49;;;;;;;7.57;6.70;;;716.80;2022.40;;;;;;5031277;28;20117;-59
2023/09/02 05:49:14;;;;;;;12.13;6.90;;;717.20;1996.80;;;;;;5031657;28;20076;-59
2023/09/02 05:51:40;;;;;;;7.82;6.90;;;743.10;1920.00;;;;;;5031830;28;20064;-59
2023/09/02 05:54:08;;;;;;;7.25;6.55;;;820.10;1689.60;;;;;;5031471;28;20100;-60
2023/09/02 05:56:34;;;;;;;8.43;7.10;;;871.30;1536.00;;;;;;5031243;28;20021;-60
2023/09/02 05:59:03;;;;;;;13.10;11.88;;;922.10;1459.20;;;;;;5031817;28;20112;-61
2023/09/02 06:01:29;;;;;;;8.45;7.65;;;948.10;1408.00;;;;;;5031292;28;20037;-59
2023/09/02 06:03:55;;;;;;;9.07;8.13;;;948.10;1356.80;;;;;;5030842;28;20109;-60
2023/09/02 06:06:22;;;;;;;8.55;7.75;;;948.10;1331.20;;;;;;5031609;28;20449;-60
2023/09/02 06:08:48;;;;;;;10.82;7.90;;;973.50;1331.20;;;;;;5031233;28;20037;-60
2023/09/02 06:11:14;;;;;;;8.32;7.53;;;998.80;1331.20;;;;;;5030994;28;20086;-60
2023/09/02 06:13:40;;;;;;;8.93;8.07;;;948.10;1331.20;;;;;;5030974;28;20037;-61
2023/09/02 06:16:06;;;;;;;9.45;8.65;;;972.90;1356.80;;;;;;5031011;28;20026;-59
2023/09/02 06:18:33;;;;;;;10.05;8.38;;;973.50;1331.20;;;;;;5030966;28;20029;-59
2023/09/02 06:20:59;;;;;;;9.00;8.10;;;973.70;1280.00;;;;;;5031067;28;20029;-59
2023/09/02 06:23:25;;;;;;;9.43;8.52;;;973.30;1331.20;;;;;;5030406;28;20031;-59
2023/09/02 06:25:58;;;;;;;11.43;8.40;;;998.90;1280.00;;;;;;5030773;28;20026;-59
2023/09/02 06:28:25;;;;;;;9.88;8.48;;;1050.20;1203.20;;;;;;5030449;28;20127;-59
2023/09/02 06:30:51;;;;;;;9.73;8.82;;;1049.80;1228.80;;;;;;5030882;28;20591;-59
2023/09/02 06:33:20;;;;;;;9.60;8.80;;;998.90;1254.40;;;;;;5030178;28;20041;-59
2023/09/02 06:35:45;;;;;;;10.95;9.88;;;998.60;1305.60;;;;;;5030849;28;20570;-60
2023/09/02 06:38:11;;;;;;;11.35;10.18;;;1024.20;1228.80;;;;;;5030932;28;20125;-59
2023/09/02 06:40:37;;;;;;;10.88;9.65;;;998.60;1280.00;;;;;;5030638;28;20017;-59
2023/09/02 06:43:03;;;;;;;10.13;9.13;;;973.70;1280.00;;;;;;5030231;28;20069;-58
2023/09/02 06:45:28;;;;;;;11.55;10.48;;;1050.10;1203.20;;;;;;5030289;28;20172;-60
2023/09/02 06:47:54;;;;;;;11.65;10.48;;;999.00;1254.40;;;;;;5030271;28;20033;-59
2023/09/02 06:50:20;;;;;;;11.00;9.90;;;1024.20;1228.80;;;;;;5029454;28;20490;-59
2023/09/02 06:52:46;;;;;;;12.48;11.20;;;1024.30;1228.80;;;;;;5030635;28;20036;-59
2023/09/02 06:55:13;;;;;;;11.20;10.30;;;1050.10;1203.20;;;;;;5030550;28;20013;-59
2023/09/02 06:57:42;;;;;;;11.07;9.70;;;1101.20;1152.00;;;;;;5029296;28;20096;-59
2023/09/02 07:00:09;;;;;;;12.13;10.98;;;1101.10;1152.00;;;;;;5030159;28;20021;-59
2023/09/02 07:02:35;;;;;;;9.88;9.07;;;1126.60;1126.40;;;;;;5029759;28;20430;-60
2023/09/02 07:05:01;;;;;;;11.52;10.65;;;1101.40;1152.00;;;;;;5030293;28;20025;-60
2023/09/02 07:07:26;;;;;;;11.43;10.52;;;1127.10;1100.80;;;;;;5030079;28;20107;-59
2023/09/02 07:09:52;;;;;;;12.90;11.75;;;1126.60;1126.40;;;;;;5030052;28;20071;-59
2023/09/02 07:12:18;;;;;;;13.13;12.02;;;1126.80;1126.40;;;;;;5029646;28;20041;-62
2023/09/02 07:14:44;;;;;;;13.45;12.32;;;1101.50;1100.80;;;;;;5030147;28;20025;-60
2023/09/02 07:17:09;;;;;;;13.68;12.57;;;1101.60;1100.80;;;;;;5029678;28;20064;-60
2023/09/02 07:19:35;;;;;;;14.65;13.43;;;1126.70;1100.80;;;;;;5029916;28;20033;-59
2023/09/02 07:22:01;;;;;;;15.05;13.82;;;1127.10;1100.80;;;;;;5029588;28;20038;-60
2023/09/02 07:24:26;;;;;;;14.07;12.70;;;1126.90;1100.80;;;;;;5026439;28;20022;-60
2023/09/02 07:26:52;;;;;;;15.48;14.38;;;1177.70;1049.60;;;;;;5029093;28;20032;-59
2023/09/02 07:29:18;;;;;;;14.75;13.57;;;1101.00;1126.40;;;;;;5029227;28;20038;-59
2023/09/02 07:31:44;;;;;;;14.07;12.77;;;1127.30;1049.60;;;;;;5027597;28;20364;-60
2023/09/02 07:34:10;;;;;;;15.77;14.52;;;1076.10;1100.80;;;;;;5029613;28;20032;-60
2023/09/02 07:36:36;;;;;;;16.42;15.05;;;1050.20;1152.00;;;;;;5029967;28;20022;-60
2023/09/02 07:39:01;;;;;;;15.75;14.18;;;1127.30;1075.20;;;;;;5029474;28;20017;-60
2023/09/02 07:41:27;;;;;;;15.02;13.70;;;1101.10;1100.80;;;;;;5029683;28;20108;-61
2023/09/02 07:43:53;;;;;;;14.15;13.15;;;1127.10;1075.20;;;;;;5026424;28;20480;-60
2023/09/02 07:46:18;;;;;;;14.93;13.60;;;1126.60;1100.80;;;;;;5028093;28;20080;-59
2023/09/02 07:48:48;;;;;;;14.45;13.52;;;1075.70;1100.80;;;;;;5028585;28;20045;-59
2023/09/02 07:51:14;;;;;;;13.88;12.93;;;1126.40;1100.80;;;;;;5028483;28;20476;-59
2023/09/02 07:53:39;;;;;;;14.27;13.02;;;1101.30;1075.20;;;;;;5029679;28;20103;-60
2023/09/02 07:56:05;;;;;;;15.65;14.55;;;1101.20;1049.60;;;;;;5029379;28;20043;-59
2023/09/02 07:58:31;;;;;;;15.82;14.60;;;1049.70;1177.60;;;;;;5029612;28;20183;-60
2023/09/02 08:00:56;;;;;;;14.50;13.40;;;1101.30;1100.80;;;;;;5029319;28;20057;-59
2023/09/02 08:03:22;;;;;;;14.45;13.35;;;1050.20;1152.00;;;;;;5028799;28;20030;-60
2023/09/02 08:05:48;;;;;;;16.38;14.85;;;1127.10;1075.20;;;;;;5028924;28;20034;-59
2023/09/02 08:08:14;;;;;;;15.18;14.05;;;1101.30;1100.80;;;;;;5028822;28;20498;-60
2023/09/02 08:10:40;;;;;;;14.60;13.13;;;1101.10;1100.80;;;;;;5029563;28;20096;-60
2023/09/02 08:13:06;;;;;;;15.55;14.45;;;1075.70;1100.80;;;;;;5029434;28;20072;-60
2023/09/02 08:15:31;;;;;;;15.32;13.77;;;1076.10;1100.80;;;;;;5028672;28;20116;-60
2023/09/02 08:17:57;;;;;;;16.35;15.00;;;1152.50;1049.60;;;;;;5028724;28;20117;-60
2023/09/02 08:20:23;;;;;;;15.45;14.32;;;1100.90;1126.40;;;;;;5028991;28;20030;-60
2023/09/02 08:22:49;;;;;;;15.23;14.13;;;1126.40;1100.80;;;;;;5029371;28;20380;-61
2023/09/02 08:25:14;;;;;;;15.13;13.90;;;1075.80;1126.40;;;;;;5028607;28;21556;-59
2023/09/02 08:27:45;;;;;;;18.33;13.70;;;1101.30;1075.20;;;;;;5028906;28;20511;-61
2023/09/02 08:30:11;;;;;;;12.80;11.98;;;1075.60;1100.80;;;;;;5028615;28;20491;-61
2023/09/02 08:32:37;;;;;;;14.57;13.45;;;1050.50;1100.80;;;;;;5027671;28;20029;-60
2023/09/02 08:35:03;;;;;;;13.30;12.20;;;1024.00;1152.00;;;;;;5028518;28;20021;-60
2023/09/02 08:37:31;;;;;;;12.55;11.65;;;1049.80;1152.00;;;;;;5028617;28;20769;-60
2023/09/02 08:39:57;;;;;;;11.73;10.65;;;1075.70;1126.40;;;;;;5028944;28;20036;-60
2023/09/02 08:42:25;;;;;;;11.00;10.30;;;1050.10;1126.40;;;;;;5028160;28;20029;-59
2023/09/02 08:44:53;;;;;;;11.70;10.90;;;1050.10;1100.80;;;;;;5028363;28;20057;-60
2023/09/02 08:47:19;;;;;;;12.00;10.25;;;1024.20;1126.40;;;;;;5028358;28;20034;-59
2023/09/02 08:49:45;;;;;;;9.82;8.88;;;973.00;1177.60;;;;;;5028391;28;20017;-60
2023/09/02 08:52:13;;;;;;;8.70;7.50;;;921.70;1254.40;;;;;;5028685;28;20026;-59
2023/09/02 08:54:39;;;;;;;7.50;6.90;;;871.30;1305.60;;;;;;5028840;28;20041;-59
2023/09/02 08:57:06;;;;;;;8.48;7.72;;;845.70;1331.20;;;;;;5028774;28;20030;-59
2023/09/02 08:59:33;;;;;;;7.40;6.70;;;845.20;1356.80;;;;;;5028185;28;20367;-59
2023/09/02 09:02:00;;;;;;;8.77;7.88;;;844.90;1408.00;;;;;;5028738;28;20636;-59
2023/09/02 09:04:29;;;;;;;8.15;7.35;;;819.60;1459.20;;;;;;5027991;28;20493;-59
2023/09/02 09:06:55;;;;;;;8.02;7.28;;;819.50;1408.00;;;;;;5028636;28;20379;-60
2023/09/02 09:09:23;;;;;;;9.65;7.53;;;819.20;1433.60;;;;;;5028229;28;20025;-59
2023/09/02 09:11:50;;;;;;;10.35;8.30;;;794.40;1459.20;;;;;;5028352;28;20030;-59
2023/09/02 09:14:22;;;;;;;9.98;8.07;;;794.30;1484.80;;;;;;5028277;28;20503;-59
2023/09/02 09:16:52;;;;;;;8.65;7.80;;;794.00;1484.80;;;;;;5028147;28;20475;-59
2023/09/02 09:19:19;;;;;;;7.78;6.97;;;768.90;1459.20;;;;;;5015669;28;20104;-59
2023/09/02 09:21:45;;;;;;;7.35;6.75;;;793.70;1510.40;;;;;;5031339;28;20041;-60
2023/09/02 09:24:12;;;;;;;7.88;7.07;;;793.60;1459.20;;;;;;5025312;28;20022;-59
2023/09/02 09:26:38;;;;;;;8.60;7.70;;;793.70;1510.40;;;;;;5025964;28;20035;-59
2023/09/02 09:29:11;;;;;;;8.90;7.13;;;768.90;1484.80;;;;;;5031715;28;20410;-59
2023/09/02 09:31:37;;;;;;;7.90;7.07;;;794.20;1484.80;;;;;;5031995;28;20033;-59
2023/09/02 09:34:03;;;;;;;7.65;6.95;;;794.50;1459.20;;;;;;5031935;28;20029;-59
2023/09/02 09:36:31;;;;;;;9.18;7.53;;;768.60;1459.20;;;;;;5031784;28;20021;-58
2023/09/02 09:38:59;;;;;;;7.35;6.60;;;793.60;1459.20;;;;;;5030929;28;20036;-59
2023/09/02 09:41:26;;;;;;;8.15;5.97;;;793.90;1459.20;;;;;;5030840;28;20033;-58
2023/09/02 09:44:15;;;;;;;10.48;6.60;;;768.90;1408.00;;;;;;5030647;28;20056;-58
2023/09/02 09:46:44;;;;;;;8.13;7.43;;;794.10;1459.20;;;;;;5031055;28;20068;-58
2023/09/02 09:49:30;;;;;;;7.07;6.22;;;768.90;1459.20;;;;;;5031212;28;20044;-59
2023/09/02 09:51:59;;;;;;;6.78;6.10;;;793.70;1433.60;;;;;;5031175;28;20080;-59
2023/09/02 09:54:45;;;;;;;8.65;7.15;;;768.60;1459.20;;;;;;5030883;28;20570;-59
2023/09/02 09:57:34;;;;;;;7.60;6.38;;;768.60;1459.20;;;;;;5031163;28;20676;-59
2023/09/02 10:00:00;;;;;;;9.77;5.65;;;768.00;1433.60;;;;;;5031126;28;20034;-59
2023/09/02 10:02:26;;;;;;;9.63;5.88;;;768.30;1433.60;;;;;;5030942;28;20026;-58
2023/09/02 10:04:56;;;;;;;6.22;5.35;;;768.60;1459.20;;;;;;5031195;28;20024;-59
2023/09/02 10:07:24;;;;;;;6.78;6.07;;;768.90;1433.60;;;;;;5030770;28;20488;-59
2023/09/02 10:09:52;;;;;;;7.25;6.15;;;768.90;1433.60;;;;;;5031172;28;20029;-58
2023/09/02 10:12:17;;;;;;;7.38;6.00;;;768.60;1459.20;;;;;;5028267;28;20045;-59
2023/09/02 10:14:45;;;;;;;7.22;6.30;;;768.70;1459.20;;;;;;5025292;28;20030;-58
2023/09/02 10:17:12;;;;;;;6.60;5.97;;;768.90;1484.80;;;;;;5028700;28;20053;-59
2023/09/02 10:19:38;;;;;;;7.82;5.82;;;768.90;1433.60;;;;;;5030688;28;20424;-59
2023/09/02 10:22:05;;;;;;;5.28;4.78;;;768.60;1433.60;;;;;;5030675;28;20022;-60
2023/09/02 10:24:44;;;;;;;7.10;5.65;;;768.50;1433.60;;;;;;5030643;28;20048;-59
2023/09/02 10:27:18;;;;;;;6.20;5.45;;;768.50;1408.00;;;;;;5028921;28;20036;-58
2023/09/02 10:29:46;;;;;;;6.60;5.15;;;768.30;1433.60;;;;;;5029622;28;20029;-59
2023/09/02 10:32:15;;;;;;;6.55;5.45;;;768.40;1433.60;;;;;;5029116;28;20107;-58
2023/09/02 10:35:04;;;;;;;5.93;4.70;;;768.30;1408.00;;;;;;5013673;28;20034;-57
2023/09/02 10:37:45;;;;;;;8.50;5.75;;;743.10;1433.60;;;;;;5031176;28;20036;-56
2023/09/02 10:40:16;;;;;;;5.75;4.85;;;768.00;1433.60;;;;;;5029843;28;20034;-57
2023/09/02 10:42:42;;;;;;;5.70;4.72;;;768.20;1433.60;;;;;;5029941;28;20509;-59
2023/09/02 10:45:09;;;;;;;5.20;4.60;;;768.10;1433.60;;;;;;5030652;28;20053;-58
2023/09/02 10:47:36;;;;;;;5.78;4.60;;;768.10;1459.20;;;;;;5030315;28;20060;-58
2023/09/02 10:50:03;;;;;;;6.68;5.13;;;768.10;1459.20;;;;;;5021300;28;20375;-59
2023/09/02 10:52:29;;;;;;;7.43;5.90;;;768.00;1408.00;;;;;;5026864;28;20018;-58
2023/09/02 10:55:03;;;;;;;7.40;5.88;;;743.30;1382.40;;;;;;5030302;28;20081;-58
2023/09/02 10:57:30;;;;;;;5.75;4.70;;;768.10;1433.60;;;;;;5029592;28;20028;-59
2023/09/02 11:00:20;;;;;;;7.28;4.78;;;743.10;1408.00;;;;;;5030104;28;20032;-58
2023/09/02 11:02:48;;;;;;;8.32;5.55;;;743.30;1408.00;;;;;;5017772;28;20036;-59
2023/09/02 11:05:14;;;;;;;5.40;4.85;;;743.00;1433.60;;;;;;5030156;28;20018;-58
2023/09/02 11:07:40;;;;;;;6.80;4.75;;;742.80;1433.60;;;;;;5029799;28;20026;-59
2023/09/02 11:10:10;;;;;;;7.47;5.28;;;742.90;1433.60;;;;;;5030188;28;20103;-60
2023/09/02 11:12:58;;;;;;;6.05;5.05;;;743.00;1459.20;;;;;;5029763;28;20025;-59
2023/09/02 11:15:24;;;;;;;5.53;4.50;;;743.00;1408.00;;;;;;5029219;28;20130;-60
2023/09/02 11:17:50;;;;;;;5.05;4.38;;;743.00;1382.40;;;;;;5029968;28;20101;-60
2023/09/02 11:20:19;;;;;;;5.40;4.85;;;743.20;1408.00;;;;;;5028369;28;20514;-59
2023/09/02 11:23:09;;;;;;;5.97;4.72;;;743.30;1382.40;;;;;;5029663;28;20029;-59
2023/09/02 11:25:41;;;;;;;4.43;4.03;;;743.00;1356.80;;;;;;5029766;28;20029;-59
2023/09/02 11:28:13;;;;;;;5.28;4.50;;;742.80;1331.20;;;;;;5029560;28;20033;-59
2023/09/02 11:30:39;;;;;;;6.40;4.55;;;742.90;1356.80;;;;;;5029329;28;20010;-60
2023/09/02 11:33:09;;;;;;;6.13;4.13;;;743.00;1331.20;;;;;;5015227;28;20025;-59
2023/09/02 11:35:37;;;;;;;5.18;4.60;;;743.20;1331.20;;;;;;5025315;28;20029;-59
2023/09/02 11:38:16;;;;;;;6.63;4.55;;;743.10;1356.80;;;;;;5020200;28;20038;-59
2023/09/02 11:40:42;;;;;;;7.32;4.25;;;743.00;1382.40;;;;;;5023641;28;20022;-59
2023/09/02 11:43:07;;;;;;;7.00;4.28;;;743.10;1356.80;;;;;;5009898;28;20033;-60
2023/09/02 11:45:36;;;;;;;5.70;4.32;;;743.20;1331.20;;;;;;5017811;28;20100;-59
2023/09/02 11:48:06;;;;;;;4.60;4.13;;;743.00;1356.80;;;;;;5027755;28;20040;-59
2023/09/02 11:50:32;;;;;;;10.10;4.70;;;743.30;1382.40;;;;;;5028105;28;20057;-58
2023/09/02 11:52:58;;;;;;;5.43;4.70;;;768.10;1408.00;;;;;;5026908;28;20111;-58
2023/09/02 11:55:26;;;;;;;7.28;4.68;;;768.10;1356.80;;;;;;5027641;28;20475;-60
2023/09/02 11:57:52;;;;;;;6.78;4.72;;;768.20;1356.80;;;;;;5028587;28;20056;-59
2023/09/02 12:00:19;;;;;;;4.43;3.90;;;768.40;1382.40;;;;;;5029502;28;20084;-57
2023/09/02 12:02:46;;;;;;;5.78;3.80;;;768.40;1331.20;;;;;;5028775;28;20115;-59
2023/09/02 12:05:13;;;;;;;5.35;4.25;;;768.30;1331.20;;;;;;5029462;28;20363;-58
2023/09/02 12:07:42;;;;;;;4.70;3.97;;;768.40;1331.20;;;;;;5028229;28;20108;-58
2023/09/02 12:10:13;;;;;;;6.18;3.90;;;768.10;1331.20;;;;;;5029326;28;20025;-59